createdAt,value
2022-09-10T00:01:45.007Z,1.20
2022-09-10T00:03:50.013Z,1.10
2022-09-10T00:05:54.502Z,0.90
2022-09-10T00:07:57.293Z,1.13
2022-09-10T00:10:00.106Z,1.20
2022-09-10T00:12:03.692Z,1.23
2022-09-10T00:14:08.758Z,0.90
2022-09-10T00:16:14.402Z,1.10
2022-09-10T00:18:19.266Z,1.13
2022-09-10T00:20:23.310Z,1.30
2022-09-10T00:22:26.061Z,1.03
2022-09-10T00:24:28.841Z,1.10
2022-09-10T00:26:34.530Z,1.00
2022-09-10T00:28:37.408Z,1.00
2022-09-10T00:30:41.552Z,1.00
2022-09-10T00:32:44.343Z,1.20
2022-09-10T00:34:47.784Z,1.10
2022-09-10T00:36:51.820Z,1.10
2022-09-10T00:38:57.752Z,0.93
2022-09-10T00:41:05.440Z,0.93
2022-09-10T00:43:14.117Z,0.90
2022-09-10T00:45:22.097Z,1.20
2022-09-10T00:47:29.740Z,1.00
2022-09-10T00:49:37.250Z,1.10
2022-09-10T00:51:40.494Z,1.20
2022-09-10T00:53:44.844Z,1.30
2022-09-10T00:55:50.452Z,1.27
2022-09-10T00:57:57.583Z,1.20
2022-09-10T01:00:03.485Z,1.20
2022-09-10T01:02:06.232Z,1.30
2022-09-10T01:04:11.876Z,1.20
2022-09-10T01:06:14.848Z,1.00
2022-09-10T01:08:19.126Z,1.03
2022-09-10T01:10:26.172Z,1.10
2022-09-10T01:12:51.410Z,1.23
2022-09-10T01:15:09.282Z,1.20
2022-09-10T01:17:22.784Z,1.20
2022-09-10T01:19:44.633Z,1.20
2022-09-10T01:21:57.413Z,1.20
2022-09-10T01:24:44.531Z,1.13
2022-09-10T01:27:17.369Z,1.20
2022-09-10T01:29:27.741Z,1.10
2022-09-10T01:31:35.762Z,1.30
2022-09-10T01:33:43.384Z,1.20
2022-09-10T01:35:50.465Z,1.20
2022-09-10T01:37:56.075Z,1.20
2022-09-10T01:40:01.056Z,1.30
2022-09-10T01:42:04.097Z,1.10
2022-09-10T01:44:10.875Z,1.30
2022-09-10T01:46:25.452Z,1.13
2022-09-10T01:49:02.420Z,1.00
2022-09-10T01:51:11.462Z,1.00
2022-09-10T01:53:36.336Z,1.13
2022-09-10T01:55:47.965Z,1.20
2022-09-10T01:57:59.934Z,1.20
2022-09-10T02:00:09.450Z,1.20
2022-09-10T02:02:19.728Z,1.17
2022-09-10T02:04:23.376Z,1.23
2022-09-10T02:06:29.641Z,1.30
2022-09-10T02:08:37.808Z,1.37
2022-09-10T02:10:50.744Z,1.13
2022-09-10T02:12:53.485Z,1.10
2022-09-10T02:14:58.179Z,1.03
2022-09-10T02:17:01.701Z,1.00
2022-09-10T02:19:06.583Z,1.20
2022-09-10T02:21:11.364Z,1.10
2022-09-10T02:23:18.344Z,1.37
2022-09-10T02:25:21.067Z,1.07
2022-09-10T02:27:24.346Z,1.30
2022-09-10T02:29:27.093Z,0.87
2022-09-10T02:31:30.201Z,1.30
2022-09-10T02:33:32.996Z,0.90
2022-09-10T02:35:37.040Z,1.10
2022-09-10T02:37:39.826Z,1.33
2022-09-10T02:39:42.633Z,1.23
2022-09-10T02:41:48.012Z,1.27
2022-09-10T02:43:50.914Z,1.07
2022-09-10T02:45:56.998Z,0.93
2022-09-10T02:48:00.216Z,1.20
2022-09-10T02:50:02.930Z,1.20
2022-09-10T02:52:07.201Z,1.20
2022-09-10T02:54:10.298Z,1.13
2022-09-10T02:56:13.634Z,1.17
2022-09-10T02:58:17.248Z,1.00
2022-09-10T03:00:20.793Z,1.03
2022-09-10T03:02:23.614Z,1.00
2022-09-10T03:04:26.423Z,1.00
2022-09-10T03:06:29.134Z,1.20
2022-09-10T03:08:33.411Z,1.07
2022-09-10T03:10:36.341Z,1.20
2022-09-10T03:12:39.180Z,1.10
2022-09-10T03:14:41.830Z,1.00
2022-09-10T03:16:44.526Z,1.23
2022-09-10T03:18:47.974Z,1.00
2022-09-10T03:20:50.902Z,1.10
2022-09-10T03:22:53.589Z,1.00
2022-09-10T03:24:58.485Z,1.27
2022-09-10T03:27:01.658Z,1.00
2022-09-10T03:29:04.420Z,1.13
2022-09-10T03:31:07.792Z,0.90
2022-09-10T03:33:11.764Z,1.00
2022-09-10T03:35:16.819Z,1.00
2022-09-10T03:37:19.584Z,1.10
2022-09-10T03:39:22.349Z,1.00
2022-09-10T03:41:28.343Z,0.97
2022-09-10T03:43:31.323Z,0.83
2022-09-10T03:45:34.009Z,1.10
2022-09-10T03:47:38.224Z,1.20
2022-09-10T03:49:40.931Z,1.10
2022-09-10T03:51:43.639Z,1.00
2022-09-10T03:53:46.302Z,0.97
2022-09-10T03:55:50.821Z,0.93
2022-09-10T03:57:54.800Z,1.00
2022-09-10T03:59:58.000Z,1.20
2022-09-10T04:02:00.779Z,1.10
2022-09-10T04:04:04.004Z,1.10
2022-09-10T04:06:10.706Z,1.20
2022-09-10T04:08:14.605Z,1.00
2022-09-10T04:10:18.007Z,1.17
2022-09-10T04:12:20.727Z,1.00
2022-09-10T04:14:24.745Z,1.00
2022-09-10T04:16:27.759Z,0.97
2022-09-10T04:18:34.499Z,1.07
2022-09-10T04:20:38.035Z,1.10
2022-09-10T04:22:40.709Z,1.03
2022-09-10T04:24:44.544Z,1.10
2022-09-10T04:26:47.402Z,1.07
2022-09-10T04:28:50.166Z,1.00
2022-09-10T04:31:08.281Z,0.97
2022-09-10T04:33:11.634Z,1.90
2022-09-10T04:35:15.287Z,1.90
2022-09-10T04:37:19.543Z,1.60
2022-09-10T04:39:22.367Z,1.20
2022-09-10T04:41:25.268Z,1.17
2022-09-10T04:43:28.403Z,0.93
2022-09-10T04:45:33.012Z,1.03
2022-09-10T04:47:37.884Z,1.40
2022-09-10T04:49:40.577Z,1.23
2022-09-10T04:51:43.274Z,1.27
2022-09-10T04:53:46.210Z,1.13
2022-09-10T04:55:51.366Z,1.30
2022-09-10T04:57:54.503Z,1.27
2022-09-10T04:59:57.265Z,1.40
2022-09-10T05:01:59.994Z,1.30
2022-09-10T05:04:04.230Z,1.50
2022-09-10T05:06:07.258Z,1.20
2022-09-10T05:08:10.358Z,1.30
2022-09-10T05:10:13.486Z,1.20
2022-09-10T05:12:16.682Z,1.00
2022-09-10T05:14:19.463Z,1.00
2022-09-10T05:16:22.270Z,1.13
2022-09-10T05:18:25.645Z,1.30
2022-09-10T05:20:29.714Z,0.80
2022-09-10T05:22:38.487Z,1.20
2022-09-10T05:24:44.087Z,1.00
2022-09-10T05:26:47.184Z,1.00
2022-09-10T05:28:49.888Z,1.30
2022-09-10T05:30:52.678Z,2.30
2022-09-10T05:32:55.650Z,1.40
2022-09-10T05:34:58.346Z,1.83
2022-09-10T05:37:02.365Z,2.90
2022-09-10T05:39:05.322Z,1.87
2022-09-10T05:41:10.418Z,1.67
2022-09-10T05:43:13.108Z,1.30
2022-09-10T05:45:16.022Z,1.10
2022-09-10T05:47:18.818Z,1.20
2022-09-10T05:49:21.530Z,1.17
2022-09-10T05:51:27.761Z,1.13
2022-09-10T05:53:32.179Z,1.17
2022-09-10T05:55:34.967Z,1.97
2022-09-10T05:57:37.735Z,1.13
2022-09-10T05:59:40.685Z,1.40
2022-09-10T06:01:43.435Z,1.30
2022-09-10T06:03:46.214Z,1.27
2022-09-10T06:05:51.206Z,1.40
2022-09-10T06:07:53.913Z,1.50
2022-09-10T06:09:58.272Z,1.20
2022-09-10T06:12:01.266Z,1.30
2022-09-10T06:14:04.514Z,1.60
2022-09-10T06:16:07.830Z,1.50
2022-09-10T06:18:10.651Z,1.50
2022-09-10T06:20:13.743Z,1.23
2022-09-10T06:22:16.453Z,1.20
2022-09-10T06:24:19.759Z,1.10
2022-09-10T06:26:24.106Z,1.30
2022-09-10T06:28:26.786Z,1.20
2022-09-10T06:30:29.501Z,1.40
2022-09-10T06:32:32.930Z,1.10
2022-09-10T06:34:35.786Z,1.10
2022-09-10T06:36:38.566Z,1.10
2022-09-10T06:38:43.879Z,1.37
2022-09-10T06:40:54.506Z,1.30
2022-09-10T06:43:02.268Z,2.63
2022-09-10T06:45:05.956Z,1.57
2022-09-10T06:47:50.866Z,1.30
2022-09-10T06:49:32.114Z,1.63
2022-09-10T06:51:34.811Z,1.80
2022-09-10T06:53:38.329Z,1.50
2022-09-10T06:55:41.042Z,1.10
2022-09-10T06:57:44.355Z,1.30
2022-09-10T06:59:48.495Z,1.20
2022-09-10T07:01:51.224Z,1.20
2022-09-10T07:03:57.041Z,1.50
2022-09-10T07:06:04.610Z,1.20
2022-09-10T07:08:07.355Z,1.30
2022-09-10T07:10:10.797Z,1.40
2022-09-10T07:12:13.443Z,1.67
2022-09-10T07:14:16.189Z,1.33
2022-09-10T07:16:20.841Z,1.40
2022-09-10T07:18:23.510Z,1.77
2022-09-10T07:20:28.570Z,1.37
2022-09-10T07:22:32.223Z,1.10
2022-09-10T07:24:35.201Z,1.47
2022-09-10T07:26:38.458Z,1.50
2022-09-10T07:28:43.015Z,1.97
2022-09-10T07:30:47.269Z,2.80
2022-09-10T07:32:51.343Z,1.47
2022-09-10T07:34:55.990Z,1.80
2022-09-10T07:36:58.969Z,1.40
2022-09-10T07:39:02.006Z,1.67
2022-09-10T07:41:06.525Z,1.53
2022-09-10T07:43:09.205Z,1.50
2022-09-10T07:45:15.698Z,1.27
2022-09-10T07:47:18.928Z,1.10
2022-09-10T07:49:23.092Z,1.30
2022-09-10T07:51:26.897Z,1.47
2022-09-10T07:53:29.661Z,1.30
2022-09-10T07:55:32.915Z,1.20
2022-09-10T07:57:37.899Z,1.10
2022-09-10T07:59:41.147Z,1.10
2022-09-10T08:01:44.581Z,1.30
2022-09-10T08:03:47.765Z,1.40
2022-09-10T08:05:51.810Z,1.10
2022-09-10T08:07:55.100Z,1.17
2022-09-10T08:09:58.255Z,1.30
2022-09-10T08:12:01.033Z,1.10
2022-09-10T08:14:03.793Z,1.30
2022-09-10T08:16:08.212Z,2.10
2022-09-10T08:18:11.355Z,1.10
2022-09-10T08:20:14.090Z,1.13
2022-09-10T08:22:18.214Z,1.33
2022-09-10T08:24:21.048Z,1.33
2022-09-10T08:26:24.438Z,1.10
2022-09-10T08:28:27.447Z,1.10
2022-09-10T08:30:32.052Z,1.13
2022-09-10T08:32:36.106Z,1.27
2022-09-10T08:34:38.850Z,1.27
2022-09-10T08:36:42.144Z,1.23
2022-09-10T08:38:46.863Z,1.27
2022-09-10T08:40:49.565Z,1.00
2022-09-10T08:42:53.212Z,0.87
2022-09-10T08:45:02.608Z,1.10
2022-09-10T08:47:21.213Z,1.17
2022-09-10T08:49:32.538Z,1.20
2022-09-10T08:51:42.428Z,1.07
2022-09-10T08:53:51.342Z,1.50
2022-09-10T08:55:57.680Z,1.10
2022-09-10T08:58:04.584Z,1.27
2022-09-10T09:00:24.874Z,1.03
2022-09-10T09:02:48.915Z,1.10
2022-09-10T09:04:58.471Z,1.20
2022-09-10T09:07:04.685Z,1.10
2022-09-10T09:09:15.255Z,1.13
2022-09-10T09:11:27.905Z,1.10
2022-09-10T09:14:02.588Z,1.03
2022-09-10T09:16:15.199Z,1.50
2022-09-10T09:18:28.020Z,1.30
2022-09-10T09:20:44.668Z,1.10
2022-09-10T09:22:53.235Z,1.00
2022-09-10T09:24:59.413Z,1.10
2022-09-10T09:27:09.981Z,1.53
2022-09-10T09:29:19.052Z,1.80
2022-09-10T09:31:26.535Z,1.40
2022-09-10T09:33:31.198Z,1.10
2022-09-10T09:35:38.664Z,1.00
2022-09-10T09:37:47.411Z,0.90
2022-09-10T09:40:05.680Z,1.07
2022-09-10T09:42:16.538Z,1.17
2022-09-10T09:44:28.185Z,1.00
2022-09-10T09:46:30.845Z,1.10
2022-09-10T09:48:39.880Z,1.87
2022-09-10T09:50:46.425Z,1.40
2022-09-10T09:52:50.889Z,1.10
2022-09-10T09:55:13.730Z,0.90
2022-09-10T09:57:20.657Z,1.00
2022-09-10T09:59:27.532Z,0.90
2022-09-10T10:01:33.330Z,1.30
2022-09-10T10:03:48.347Z,1.60
2022-09-10T10:05:51.191Z,1.40
2022-09-10T10:07:53.899Z,1.30
2022-09-10T10:09:56.616Z,1.30
2022-09-10T10:12:05.736Z,2.27
2022-09-10T10:14:39.387Z,1.20
2022-09-10T10:16:42.115Z,1.30
2022-09-10T10:18:45.933Z,1.20
2022-09-10T10:20:49.812Z,1.23
2022-09-10T10:22:52.811Z,1.10
2022-09-10T10:24:55.523Z,1.23
2022-09-10T10:26:58.548Z,1.23
2022-09-10T10:29:06.555Z,1.10
2022-09-10T10:31:11.685Z,1.30
2022-09-10T10:33:19.378Z,1.00
2022-09-10T10:35:47.114Z,1.20
2022-09-10T10:38:03.536Z,1.10
2022-09-10T10:40:21.639Z,2.90
2022-09-10T10:42:30.509Z,1.40
2022-09-10T10:44:52.272Z,1.50
2022-09-10T10:47:07.596Z,1.00
2022-09-10T10:49:26.875Z,1.00
2022-09-10T10:51:42.040Z,1.30
2022-09-10T10:54:10.146Z,1.00
2022-09-10T10:56:17.575Z,1.20
2022-09-10T10:58:39.064Z,1.07
2022-09-10T11:00:46.686Z,1.30
2022-09-10T11:02:56.567Z,1.10
2022-09-10T11:05:05.933Z,1.17
2022-09-10T11:07:14.050Z,1.10
2022-09-10T11:09:22.518Z,1.43
2022-09-10T11:11:32.372Z,1.47
2022-09-10T11:13:40.419Z,1.10
2022-09-10T11:15:48.461Z,1.40
2022-09-10T11:17:58.400Z,1.20
2022-09-10T11:20:27.934Z,1.20
2022-09-10T11:22:36.995Z,1.10
2022-09-10T11:24:45.982Z,1.23
2022-09-10T11:26:53.078Z,1.13
2022-09-10T11:29:04.328Z,1.00
2022-09-10T11:31:13.756Z,1.03
2022-09-10T11:33:24.414Z,1.10
2022-09-10T11:35:29.939Z,1.23
2022-09-10T11:37:50.504Z,1.00
2022-09-10T11:39:57.873Z,0.87
2022-09-10T11:42:06.670Z,1.20
2022-09-10T11:44:19.882Z,1.00
2022-09-10T11:46:27.526Z,1.10
2022-09-10T11:48:37.116Z,1.20
2022-09-10T11:50:47.926Z,1.03
2022-09-10T11:52:51.101Z,1.00
2022-09-10T11:54:55.492Z,1.20
2022-09-10T11:57:02.022Z,1.50
2022-09-10T11:59:20.596Z,1.00
2022-09-10T12:01:37.947Z,0.93
2022-09-10T12:04:13.559Z,1.23
2022-09-10T12:06:26.345Z,1.00
2022-09-10T12:08:45.775Z,0.90
2022-09-10T12:10:56.341Z,1.00
2022-09-10T12:12:59.678Z,0.90
2022-09-10T12:15:02.507Z,0.90
2022-09-10T12:17:11.159Z,1.00
2022-09-10T12:19:22.722Z,0.70
2022-09-10T12:21:39.220Z,0.90
2022-09-10T12:23:44.546Z,0.90
2022-09-10T12:25:58.512Z,1.10
2022-09-10T12:28:05.426Z,1.03
2022-09-10T12:30:42.472Z,1.20
2022-09-10T12:32:45.329Z,0.97
2022-09-10T12:34:49.784Z,1.40
2022-09-10T12:37:26.387Z,1.13
2022-09-10T12:39:30.973Z,1.00
2022-09-10T12:41:57.060Z,1.10
2022-09-10T12:44:00.349Z,1.20
2022-09-10T12:46:17.508Z,1.03
2022-09-10T12:48:23.922Z,1.00
2022-09-10T12:50:38.463Z,1.00
2022-09-10T12:52:53.445Z,1.00
2022-09-10T12:55:02.655Z,0.80
2022-09-10T12:57:27.310Z,0.90
2022-09-10T12:59:53.246Z,1.20
2022-09-10T13:01:56.853Z,1.00
2022-09-10T13:04:02.400Z,1.00
2022-09-10T13:06:07.081Z,0.90
2022-09-10T13:08:18.614Z,0.97
2022-09-10T13:10:23.989Z,0.80
2022-09-10T13:12:28.283Z,0.90
2022-09-10T13:14:35.987Z,1.00
2022-09-10T13:16:42.568Z,0.77
2022-09-10T13:18:46.650Z,1.00
2022-09-10T13:20:49.410Z,1.00
2022-09-10T13:22:58.549Z,0.90
2022-09-10T13:25:07.163Z,0.90
2022-09-10T13:27:21.458Z,0.90
2022-09-10T13:29:30.517Z,0.80
2022-09-10T13:31:35.820Z,0.90
2022-09-10T13:33:53.389Z,0.97
2022-09-10T13:36:21.346Z,1.30
2022-09-10T13:38:57.605Z,1.27
2022-09-10T13:41:21.372Z,0.90
2022-09-10T13:43:59.461Z,0.93
2022-09-10T13:46:07.689Z,1.10
2022-09-10T13:48:17.319Z,0.90
2022-09-10T13:50:23.780Z,0.90
2022-09-10T13:52:30.409Z,0.90
2022-09-10T13:54:35.634Z,0.83
2022-09-10T13:56:44.045Z,1.10
2022-09-10T13:58:51.163Z,1.20
2022-09-10T14:00:56.673Z,0.80
2022-09-10T14:03:01.676Z,2.00
2022-09-10T14:05:04.403Z,1.80
2022-09-10T14:07:13.029Z,2.13
2022-09-10T14:09:15.860Z,1.63
2022-09-10T14:11:22.667Z,1.63
2022-09-10T14:13:32.979Z,1.57
2022-09-10T14:15:40.368Z,1.60
2022-09-10T14:17:47.770Z,1.33
2022-09-10T14:19:57.856Z,1.20
2022-09-10T14:22:01.525Z,1.20
2022-09-10T14:24:04.268Z,1.37
2022-09-10T14:26:17.289Z,1.60
2022-09-10T14:28:23.602Z,1.87
2022-09-10T14:30:29.496Z,1.60
2022-09-10T14:32:33.565Z,1.80
2022-09-10T14:34:37.071Z,1.70
2022-09-10T14:36:39.806Z,1.10
2022-09-10T14:38:43.202Z,1.10
2022-09-10T14:40:49.563Z,1.20
2022-09-10T14:42:52.226Z,1.37
2022-09-10T14:44:55.534Z,1.50
2022-09-10T14:47:02.018Z,0.97
2022-09-10T14:49:11.179Z,1.30
2022-09-10T14:51:17.462Z,1.00
2022-09-10T14:53:20.182Z,1.40
2022-09-10T14:55:25.181Z,1.00
2022-09-10T14:57:28.657Z,1.10
2022-09-10T14:59:34.015Z,1.20
2022-09-10T15:01:36.841Z,1.30
2022-09-10T15:03:42.253Z,1.50
2022-09-10T15:05:46.057Z,1.30
2022-09-10T15:07:48.811Z,1.37
2022-09-10T15:09:54.060Z,1.97
2022-09-10T15:11:59.383Z,2.03
2022-09-10T15:14:02.289Z,2.10
2022-09-10T15:16:05.125Z,2.00
2022-09-10T15:18:13.121Z,1.80
2022-09-10T15:20:17.851Z,1.90
2022-09-10T15:22:24.690Z,1.60
2022-09-10T15:24:28.255Z,1.90
2022-09-10T15:26:45.167Z,1.70
2022-09-10T15:28:47.883Z,1.70
2022-09-10T15:30:51.215Z,1.50
2022-09-10T15:32:54.587Z,1.30
2022-09-10T15:34:57.602Z,1.80
2022-09-10T15:37:02.989Z,1.60
2022-09-10T15:39:06.938Z,1.80
2022-09-10T15:41:12.895Z,2.20
2022-09-10T15:43:19.192Z,2.10
2022-09-10T15:45:22.178Z,1.80
2022-09-10T15:47:25.183Z,2.20
2022-09-10T15:49:28.210Z,2.20
2022-09-10T15:51:31.714Z,2.10
2022-09-10T15:53:36.642Z,1.73
2022-09-10T15:55:40.125Z,2.20
2022-09-10T15:57:42.874Z,1.70
2022-09-10T15:59:45.620Z,1.70
2022-09-10T16:01:49.235Z,1.50
2022-09-10T16:03:53.238Z,1.90
2022-09-10T16:06:00.527Z,1.80
2022-09-10T16:08:03.755Z,1.50
2022-09-10T16:10:09.162Z,1.40
2022-09-10T16:12:12.074Z,1.40
2022-09-10T16:14:18.417Z,1.20
2022-09-10T16:16:22.713Z,1.40
2022-09-10T16:18:25.452Z,1.30
2022-09-10T16:20:28.103Z,1.20
2022-09-10T16:22:31.878Z,1.40
2022-09-10T16:24:34.973Z,1.27
2022-09-10T16:26:41.764Z,1.30
2022-09-10T16:28:49.772Z,1.47
2022-09-10T16:30:53.068Z,1.40
2022-09-10T16:32:56.867Z,1.20
2022-09-10T16:35:00.695Z,1.20
2022-09-10T16:37:03.727Z,1.40
2022-09-10T16:39:12.221Z,1.20
2022-09-10T16:41:17.579Z,1.17
2022-09-10T16:43:22.715Z,1.10
2022-09-10T16:45:25.691Z,1.27
2022-09-10T16:47:28.674Z,1.40
2022-09-10T16:49:32.562Z,1.47
2022-09-10T16:51:36.417Z,1.20
2022-09-10T16:53:39.792Z,1.30
2022-09-10T16:55:42.693Z,1.30
2022-09-10T16:57:45.944Z,1.50
2022-09-10T16:59:50.005Z,1.50
2022-09-10T17:01:53.947Z,1.60
2022-09-10T17:03:56.770Z,1.50
2022-09-10T17:06:00.390Z,1.57
2022-09-10T17:08:04.366Z,1.87
2022-09-10T17:10:09.648Z,1.50
2022-09-10T17:12:12.396Z,1.67
2022-09-10T17:14:15.102Z,1.70
2022-09-10T17:16:25.622Z,1.70
2022-09-10T17:18:28.534Z,1.67
2022-09-10T17:20:31.421Z,1.30
2022-09-10T17:22:36.635Z,1.60
2022-09-10T17:24:39.351Z,1.80
2022-09-10T17:26:42.674Z,1.80
2022-09-10T17:28:45.398Z,1.90
2022-09-10T17:30:49.094Z,1.90
2022-09-10T17:32:53.539Z,1.80
2022-09-10T17:34:56.358Z,1.90
2022-09-10T17:36:59.053Z,1.83
2022-09-10T17:39:01.793Z,1.90
2022-09-10T17:41:05.518Z,1.90
2022-09-10T17:43:08.296Z,2.00
2022-09-10T17:45:11.718Z,3.90
2022-09-10T17:47:14.797Z,3.30
2022-09-10T17:49:19.040Z,5.30
2022-09-10T17:51:23.698Z,5.60
2022-09-10T17:53:28.269Z,4.80
2022-09-10T17:55:34.366Z,4.10
2022-09-10T17:57:37.099Z,4.63
2022-09-10T17:59:40.630Z,4.97
2022-09-10T18:01:43.885Z,5.10
2022-09-10T18:03:46.838Z,5.97
2022-09-10T18:05:51.100Z,5.67
2022-09-10T18:07:54.179Z,5.00
2022-09-10T18:09:56.852Z,5.43
2022-09-10T18:12:02.084Z,5.47
2022-09-10T18:14:04.992Z,5.00
2022-09-10T18:16:09.131Z,5.50
2022-09-10T18:18:11.867Z,19.10
2022-09-10T18:20:14.625Z,24.77
2022-09-10T18:22:18.684Z,23.50
2022-09-10T18:24:23.585Z,21.20
2022-09-10T18:26:28.711Z,13.87
2022-09-10T18:28:31.416Z,11.53
2022-09-10T18:30:34.133Z,7.93
2022-09-10T18:32:37.330Z,7.10
2022-09-10T18:34:41.142Z,5.70
2022-09-10T18:36:44.356Z,5.00
2022-09-10T18:38:48.519Z,4.90
2022-09-10T18:40:51.246Z,3.87
2022-09-10T18:42:53.908Z,4.07
2022-09-10T18:44:56.602Z,6.00
2022-09-10T18:46:59.352Z,8.50
2022-09-10T18:49:02.302Z,10.17
2022-09-10T18:51:06.786Z,9.67
2022-09-10T18:53:09.527Z,8.87
2022-09-10T18:55:13.545Z,9.50
2022-09-10T18:57:16.291Z,8.77
2022-09-10T18:59:21.047Z,8.10
2022-09-10T19:01:27.859Z,6.60
2022-09-10T19:03:35.055Z,5.17
2022-09-10T19:05:38.258Z,5.50
2022-09-10T19:07:41.174Z,5.80
2022-09-10T19:09:43.953Z,6.70
2022-09-10T19:11:49.993Z,5.90
2022-09-10T19:13:54.454Z,5.47
2022-09-10T19:15:59.097Z,5.50
2022-09-10T19:18:06.164Z,5.90
2022-09-10T19:20:10.548Z,5.10
2022-09-10T19:22:13.600Z,4.10
2022-09-10T19:24:16.774Z,6.50
2022-09-10T19:26:20.270Z,8.57
2022-09-10T19:28:24.959Z,8.07
2022-09-10T19:30:27.746Z,8.33
2022-09-10T19:32:30.558Z,6.53
2022-09-10T19:34:33.261Z,7.47
2022-09-10T19:36:36.676Z,6.00
2022-09-10T19:38:39.841Z,6.50
2022-09-10T19:40:42.531Z,8.67
2022-09-10T19:42:45.538Z,7.17
2022-09-10T19:44:49.749Z,7.13
2022-09-10T19:46:52.534Z,5.20
2022-09-10T19:48:58.184Z,4.30
2022-09-10T19:51:02.592Z,3.40
2022-09-10T19:53:05.278Z,3.90
2022-09-10T19:55:08.611Z,3.90
2022-09-10T19:57:11.467Z,3.90
2022-09-10T19:59:14.606Z,4.10
2022-09-10T20:01:20.261Z,4.23
2022-09-10T20:03:23.033Z,4.20
2022-09-10T20:05:27.050Z,3.70
2022-09-10T20:07:31.158Z,3.63
2022-09-10T20:09:37.893Z,3.83
2022-09-10T20:11:42.498Z,4.10
2022-09-10T20:13:46.169Z,4.33
2022-09-10T20:15:49.461Z,3.83
2022-09-10T20:17:53.628Z,4.30
2022-09-10T20:19:56.319Z,4.97
2022-09-10T20:21:59.037Z,4.27
2022-09-10T20:24:01.782Z,3.43
2022-09-10T20:26:12.757Z,3.57
2022-09-10T20:28:15.682Z,2.97
2022-09-10T20:30:18.981Z,2.87
2022-09-10T20:32:21.667Z,2.70
2022-09-10T20:34:26.430Z,2.50
2022-09-10T20:36:31.243Z,2.50
2022-09-10T20:38:34.316Z,2.93
2022-09-10T20:40:37.263Z,3.13
2022-09-10T20:42:40.506Z,3.10
2022-09-10T20:44:43.468Z,3.27
2022-09-10T20:46:46.204Z,3.10
2022-09-10T20:48:50.191Z,2.80
2022-09-10T20:50:55.640Z,2.30
2022-09-10T20:52:58.371Z,2.20
2022-09-10T20:55:01.709Z,2.30
2022-09-10T20:57:04.686Z,2.20
2022-09-10T20:59:07.543Z,2.37
2022-09-10T21:01:12.629Z,1.90
2022-09-10T21:03:15.408Z,2.30
2022-09-10T21:05:20.255Z,3.10
2022-09-10T21:07:24.384Z,4.10
2022-09-10T21:09:27.107Z,5.90
2022-09-10T21:11:31.562Z,5.20
2022-09-10T21:13:35.955Z,4.90
2022-09-10T21:15:38.645Z,4.93
2022-09-10T21:17:41.368Z,4.10
2022-09-10T21:19:44.122Z,3.90
2022-09-10T21:21:48.686Z,3.97
2022-09-10T21:23:54.477Z,3.87
2022-09-10T21:25:57.200Z,4.20
2022-09-10T21:27:59.904Z,4.23
2022-09-10T21:30:03.963Z,4.47
2022-09-10T21:32:06.974Z,4.30
2022-09-10T21:34:09.738Z,3.40
2022-09-10T21:36:15.599Z,2.53
2022-09-10T21:38:18.341Z,2.50
2022-09-10T21:40:22.352Z,2.30
2022-09-10T21:42:25.169Z,2.17
2022-09-10T21:44:27.891Z,2.30
2022-09-10T21:46:31.182Z,2.70
2022-09-10T21:48:35.936Z,2.30
2022-09-10T21:50:38.682Z,2.30
2022-09-10T21:52:41.765Z,2.80
2022-09-10T21:54:44.465Z,2.30
2022-09-10T21:56:48.875Z,2.43
2022-09-10T21:58:53.620Z,2.10
2022-09-10T22:00:58.577Z,2.13
2022-09-10T22:03:01.295Z,2.17
2022-09-10T22:05:04.751Z,2.27
2022-09-10T22:07:07.486Z,2.17
2022-09-10T22:09:13.877Z,2.00
2022-09-10T22:11:18.883Z,2.10
2022-09-10T22:13:23.431Z,2.80
2022-09-10T22:15:26.358Z,2.23
2022-09-10T22:17:29.083Z,3.40
2022-09-10T22:19:31.754Z,4.07
2022-09-10T22:21:36.080Z,2.97
2022-09-10T22:23:40.152Z,2.80
2022-09-10T22:25:42.819Z,4.00
2022-09-10T22:27:45.570Z,3.03
2022-09-10T22:29:51.430Z,3.63
2022-09-10T22:31:54.155Z,4.57
2022-09-10T22:33:58.286Z,4.00
2022-09-10T22:36:10.095Z,3.40
2022-09-10T22:38:17.972Z,2.77
2022-09-10T22:40:23.154Z,2.53
2022-09-10T22:42:26.206Z,2.60
2022-09-10T22:44:28.915Z,2.30
2022-09-10T22:46:34.120Z,2.20
2022-09-10T22:48:37.841Z,2.17
2022-09-10T22:50:40.539Z,2.60
2022-09-10T22:52:45.669Z,2.40
2022-09-10T22:54:48.385Z,2.63
2022-09-10T22:56:51.101Z,2.30
2022-09-10T22:58:55.559Z,2.60
2022-09-10T23:01:04.554Z,2.67
2022-09-10T23:03:08.739Z,2.80
2022-09-10T23:05:11.970Z,3.20
2022-09-10T23:07:15.766Z,3.20
2022-09-10T23:09:18.736Z,3.57
2022-09-10T23:11:23.132Z,3.60
2022-09-10T23:13:26.171Z,3.30
2022-09-10T23:15:31.593Z,3.93
2022-09-10T23:17:34.469Z,3.50
2022-09-10T23:19:38.457Z,4.20
2022-09-10T23:21:43.013Z,3.00
2022-09-10T23:23:47.160Z,2.77
2022-09-10T23:25:50.593Z,2.80
2022-09-10T23:27:54.975Z,3.50
2022-09-10T23:29:57.683Z,3.90
2022-09-10T23:32:00.430Z,4.50
2022-09-10T23:34:05.226Z,5.03
2022-09-10T23:36:11.706Z,5.47
2022-09-10T23:38:14.353Z,5.40
2022-09-10T23:40:17.180Z,5.97
2022-09-10T23:42:20.432Z,7.20
2022-09-10T23:44:23.514Z,6.43
2022-09-10T23:46:26.723Z,6.50
2022-09-10T23:48:32.649Z,6.80
2022-09-10T23:50:35.368Z,7.37
2022-09-10T23:52:39.362Z,7.67
2022-09-10T23:54:42.055Z,8.93
2022-09-10T23:56:45.067Z,7.93
2022-09-10T23:58:48.040Z,10.33
